Time;durP1;ratioP1;P1;durP2;ratioP2;P2;SDS_P1;SDS_P2;PMS_P1;PMS_P2;Temp;Humidity;BMP_temperature;BMP_pressure;BME280_temperature;BME280_humidity;BME280_pressure;Samples;Min_cycle;Max_cycle;Signal;HPM_P1;HPM_P2
2023/04/28 00:02:01;;;;;;;33.28;13.13;;;;;;;8.11;82.28;99402.94;5000779;28;20046;-42
2023/04/28 00:04:28;;;;;;;30.90;12.38;;;;;;;8.12;82.84;99407.22;4997507;28;20052;-43
2023/04/28 00:06:55;;;;;;;34.15;11.60;;;;;;;8.15;81.79;99396.03;5002103;28;20042;-44
2023/04/28 00:09:22;;;;;;;31.35;12.65;;;;;;;8.12;82.26;99396.91;4995994;28;20085;-49
2023/04/28 00:11:48;;;;;;;38.78;12.68;;;;;;;8.17;82.37;99381.41;5001197;28;20054;-42
2023/04/28 00:14:15;;;;;;;33.20;13.32;;;;;;;8.18;81.79;99386.53;4999449;28;20058;-45
2023/04/28 00:16:42;;;;;;;34.60;13.75;;;;;;;8.18;82.45;99390.84;4998780;28;20049;-44
2023/04/28 00:19:09;;;;;;;30.95;11.45;;;;;;;8.20;82.05;99379.66;4997509;28;20056;-52
2023/04/28 00:21:35;;;;;;;28.58;11.05;;;;;;;8.22;81.53;99382.25;4994297;28;20077;-44
2023/04/28 00:24:02;;;;;;;22.48;9.38;;;;;;;8.07;82.87;99375.44;4998759;28;20073;-50
2023/04/28 00:26:29;;;;;;;30.08;12.38;;;;;;;8.16;82.40;99367.63;5002483;28;20050;-46
2023/04/28 00:28:55;;;;;;;32.70;13.25;;;;;;;8.12;81.74;99373.69;4998165;28;20042;-47
2023/04/28 00:31:22;;;;;;;30.00;12.60;;;;;;;8.10;82.85;99377.97;4985662;28;20129;-45
2023/04/28 00:33:49;;;;;;;27.70;11.43;;;;;;;8.09;81.96;99363.38;4981922;28;20050;-48
2023/04/28 00:36:15;;;;;;;32.88;12.18;;;;;;;8.16;82.06;99364.19;4981399;28;20413;-49
2023/04/28 00:38:42;;;;;;;29.83;11.35;;;;;;;8.18;82.14;99357.31;4979581;28;21461;-49
2023/04/28 00:41:10;;;;;;;35.17;13.32;;;;;;;8.25;80.95;99355.56;4985708;28;20058;-47
2023/04/28 00:43:46;;;;;;;30.98;11.48;;;;;;;8.22;80.90;99352.16;4984171;28;20054;-45
2023/04/28 00:46:20;;;;;;;30.48;11.02;;;;;;;8.21;81.37;99344.41;4981474;28;20058;-47
2023/04/28 00:48:49;;;;;;;31.80;11.80;;;;;;;8.22;81.28;99346.13;4978157;28;20490;-46
2023/04/28 00:51:16;;;;;;;29.27;12.27;;;;;;;8.26;81.26;99340.09;4980879;28;20609;-47
2023/04/28 00:53:43;;;;;;;33.67;12.65;;;;;;;8.29;80.62;99336.63;4982317;28;20047;-45
2023/04/28 00:56:10;;;;;;;37.90;13.35;;;;;;;8.33;81.50;99338.31;4982612;28;20089;-45
2023/04/28 00:58:38;;;;;;;34.03;12.13;;;;;;;8.38;81.00;99336.59;4978926;28;20597;-49
2023/04/28 01:01:06;;;;;;;35.13;13.63;;;;;;;8.40;80.23;99334.84;4979284;28;20077;-47
2023/04/28 01:03:36;;;;;;;36.20;13.70;;;;;;;8.44;80.36;99331.38;4980185;28;20062;-51
2023/04/28 01:06:04;;;;;;;33.63;13.32;;;;;;;8.46;80.09;99334.81;4981906;28;20054;-45
2023/04/28 01:08:32;;;;;;;31.85;12.77;;;;;;;8.46;80.42;99334.81;4984810;28;20050;-46
2023/04/28 01:10:59;;;;;;;34.00;13.18;;;;;;;8.52;79.94;99333.06;4981227;28;20085;-43
2023/04/28 01:13:25;;;;;;;32.97;11.85;;;;;;;8.54;79.89;99331.38;4979738;28;20683;-44
2023/04/28 01:15:52;;;;;;;32.75;13.55;;;;;;;8.55;79.95;99327.94;4982217;28;20117;-46
2023/04/28 01:18:19;;;;;;;32.08;12.18;;;;;;;8.59;79.83;99321.88;4986998;28;20051;-46
2023/04/28 01:20:46;;;;;;;33.58;13.32;;;;;;;8.60;80.15;99321.00;4981496;28;20778;-50
2023/04/28 01:23:13;;;;;;;32.85;13.38;;;;;;;8.59;79.50;99314.13;4983327;28;20117;-51
2023/04/28 01:25:41;;;;;;;31.10;13.45;;;;;;;8.58;79.86;99317.59;4985255;28;20054;-46
2023/04/28 01:28:09;;;;;;;29.02;12.25;;;;;;;8.52;80.44;99309.84;4987386;28;20077;-52
2023/04/28 01:30:36;;;;;;;34.47;13.73;;;;;;;8.52;80.08;99320.16;4984538;28;20101;-44
2023/04/28 01:33:03;;;;;;;29.27;12.18;;;;;;;8.53;80.95;99319.28;4982254;28;20078;-45
2023/04/28 01:35:30;;;;;;;32.50;13.68;;;;;;;8.53;80.16;99319.28;4984347;28;20054;-53
2023/04/28 01:37:56;;;;;;;35.72;13.45;;;;;;;8.57;80.59;99324.47;4988642;28;20081;-47
2023/04/28 01:40:23;;;;;;;33.67;13.48;;;;;;;8.60;79.79;99321.00;4983784;28;20062;-45
2023/04/28 01:42:50;;;;;;;32.15;13.07;;;;;;;8.57;80.73;99311.56;4984494;28;20146;-52
2023/04/28 01:45:16;;;;;;;33.83;12.93;;;;;;;8.57;80.59;99321.00;4987961;28;20081;-46
2023/04/28 01:47:43;;;;;;;34.78;13.50;;;;;;;8.62;80.74;99324.44;4986105;28;20042;-49
2023/04/28 01:50:10;;;;;;;29.02;11.70;;;;;;;8.58;81.05;99322.75;4986840;28;20058;-48
2023/04/28 01:52:37;;;;;;;34.08;13.13;;;;;;;8.57;80.12;99310.69;4983173;28;20043;-50
2023/04/28 01:55:04;;;;;;;34.38;13.05;;;;;;;8.61;80.23;99312.38;4987118;28;20050;-46
2023/04/28 01:57:30;;;;;;;36.08;12.52;;;;;;;8.63;80.81;99310.66;4976448;28;20050;-48
2023/04/28 01:59:58;;;;;;;32.55;12.45;;;;;;;8.65;80.61;99308.91;4978898;28;20042;-48
2023/04/28 02:02:25;;;;;;;40.10;13.15;;;;;;;8.68;80.20;99302.91;4990433;28;20158;-47
2023/04/28 02:04:51;;;;;;;37.30;12.30;;;;;;;8.68;80.85;99306.31;5003407;28;20387;-45
2023/04/28 02:07:18;;;;;;;36.67;14.35;;;;;;;8.72;80.08;99302.84;4997642;28;20082;-47
2023/04/28 02:09:45;;;;;;;38.28;12.77;;;;;;;8.73;79.51;99295.97;4999980;28;20057;-48
2023/04/28 02:12:11;;;;;;;40.05;13.77;;;;;;;8.71;79.94;99298.56;5000028;28;20112;-47
2023/04/28 02:14:38;;;;;;;40.38;13.07;;;;;;;8.71;80.24;99301.13;5003005;28;20684;-49
2023/04/28 02:17:05;;;;;;;42.53;14.68;;;;;;;8.71;80.05;99303.72;4998786;28;20556;-46
2023/04/28 02:19:31;;;;;;;44.38;15.68;;;;;;;8.72;80.48;99305.41;5001873;28;20077;-48
2023/04/28 02:21:58;;;;;;;36.45;13.05;;;;;;;8.73;80.43;99307.16;4998996;28;20137;-43
2023/04/28 02:24:25;;;;;;;41.33;16.05;;;;;;;8.77;80.32;99307.09;4995811;28;20061;-47
2023/04/28 02:26:51;;;;;;;38.20;14.75;;;;;;;8.78;80.04;99303.69;5002882;28;20152;-49
2023/04/28 02:29:18;;;;;;;49.20;16.50;;;;;;;8.80;80.23;99301.94;5001917;28;20116;-44
2023/04/28 02:31:45;;;;;;;42.03;14.52;;;;;;;8.82;80.13;99305.38;5003739;28;20096;-48
2023/04/28 02:34:13;;;;;;;37.45;13.40;;;;;;;8.85;80.37;99295.03;5000567;28;20049;-48
2023/04/28 02:36:40;;;;;;;41.08;13.60;;;;;;;8.84;79.78;99288.13;5003760;28;20145;-46
2023/04/28 02:39:06;;;;;;;46.08;14.65;;;;;;;8.87;79.55;99290.69;5003408;28;20078;-50
2023/04/28 02:41:33;;;;;;;52.13;14.07;;;;;;;8.88;79.58;99289.81;5005612;28;20128;-49
2023/04/28 02:44:00;;;;;;;106.68;15.38;;;;;;;8.86;79.84;99283.81;5003298;28;20056;-49
2023/04/28 02:46:26;;;;;;;48.05;14.68;;;;;;;8.86;80.17;99286.41;5003915;28;20085;-43
2023/04/28 02:48:53;;;;;;;50.30;14.65;;;;;;;8.84;80.26;99288.13;5004308;28;20125;-49
2023/04/28 02:51:19;;;;;;;42.55;14.73;;;;;;;8.86;79.98;99286.41;4996752;28;20057;-46
2023/04/28 02:53:46;;;;;;;45.08;15.02;;;;;;;8.87;79.78;99282.94;5005903;28;20494;-45
2023/04/28 02:56:13;;;;;;;45.90;14.18;;;;;;;8.88;79.58;99284.66;5005086;28;20513;-49
2023/04/28 02:58:39;;;;;;;69.95;16.75;;;;;;;8.87;79.93;99273.47;5001593;28;20134;-50
2023/04/28 03:01:06;;;;;;;80.60;13.95;;;;;;;8.88;79.92;99279.47;5002138;28;20383;-50
2023/04/28 03:03:33;;;;;;;89.95;15.93;;;;;;;8.86;80.13;99278.66;5000404;28;20057;-51
2023/04/28 03:06:00;;;;;;;65.32;14.65;;;;;;;8.84;80.62;99272.63;4997274;28;20046;-52
2023/04/28 03:08:26;;;;;;;114.95;15.93;;;;;;;8.89;80.53;99281.22;4997248;28;20046;-44
2023/04/28 03:10:53;;;;;;;72.13;14.57;;;;;;;8.89;80.33;99280.34;5003054;28;20069;-47
2023/04/28 03:13:19;;;;;;;98.93;13.70;;;;;;;8.92;80.27;99276.00;5003447;28;20458;-43
2023/04/28 03:15:46;;;;;;;86.55;15.18;;;;;;;8.93;79.34;99277.75;5001041;28;20105;-49
2023/04/28 03:18:12;;;;;;;76.22;16.73;;;;;;;8.97;79.59;99276.84;5005295;28;20078;-47
2023/04/28 03:20:39;;;;;;;115.95;16.10;;;;;;;8.99;80.35;99277.66;4996219;28;20058;-43
2023/04/28 03:23:06;;;;;;;76.63;15.60;;;;;;;9.02;79.71;99275.94;4999059;28;20133;-46
2023/04/28 03:25:32;;;;;;;56.85;15.20;;;;;;;9.04;80.12;99274.19;4999451;28;20498;-48
2023/04/28 03:27:59;;;;;;;68.60;15.45;;;;;;;9.06;79.46;99280.22;5004917;28;20700;-43
2023/04/28 03:30:26;;;;;;;56.83;15.65;;;;;;;9.08;79.37;99278.44;5001872;28;20050;-43
2023/04/28 03:32:52;;;;;;;51.78;15.50;;;;;;;9.09;79.73;99277.59;5001706;28;20054;-48
2023/04/28 03:35:19;;;;;;;51.65;15.68;;;;;;;9.09;79.72;99275.84;4999083;28;20470;-47
2023/04/28 03:37:46;;;;;;;49.78;14.75;;;;;;;9.13;79.61;99274.13;5000371;28;20077;-50
2023/04/28 03:40:12;;;;;;;49.05;15.10;;;;;;;9.14;79.46;99270.66;5003413;28;20049;-52
2023/04/28 03:42:39;;;;;;;76.40;16.25;;;;;;;9.16;79.85;99274.09;5002440;28;20046;-43
2023/04/28 03:45:07;;;;;;;67.68;16.23;;;;;;;9.15;79.82;99274.94;5002172;28;20049;-46
2023/04/28 03:47:33;;;;;;;48.45;15.80;;;;;;;9.18;79.02;99277.50;5000343;28;20068;-51
2023/04/28 03:50:00;;;;;;;105.22;16.05;;;;;;;9.20;79.52;99283.53;4997393;28;20636;-46
2023/04/28 03:52:26;;;;;;;101.43;16.23;;;;;;;9.20;79.21;99280.94;4998736;28;20050;-47
2023/04/28 03:54:53;;;;;;;79.95;15.73;;;;;;;9.21;78.91;99277.47;5002984;28;20042;-47
2023/04/28 03:57:20;;;;;;;90.70;15.75;;;;;;;9.22;78.92;99274.03;5003415;28;20046;-46
2023/04/28 03:59:46;;;;;;;123.07;16.63;;;;;;;9.22;79.24;99279.19;5001399;28;20149;-50
2023/04/28 04:02:13;;;;;;;98.20;16.73;;;;;;;9.22;78.64;99281.78;4994947;28;20073;-43
2023/04/28 04:04:39;;;;;;;94.40;17.15;;;;;;;9.24;79.31;99279.19;4998933;28;20072;-44
2023/04/28 04:07:06;;;;;;;59.55;14.57;;;;;;;9.26;79.48;99282.63;5000767;28;20046;-45
2023/04/28 04:09:33;;;;;;;78.32;16.42;;;;;;;9.28;79.16;99282.59;4997932;28;20133;-46
2023/04/28 04:12:00;;;;;;;74.70;15.40;;;;;;;9.29;79.42;99272.22;5003619;28;20054;-46
2023/04/28 04:14:26;;;;;;;75.80;14.38;;;;;;;9.32;79.06;99279.13;5002660;28;20050;-44
2023/04/28 04:16:54;;;;;;;154.88;17.98;;;;;;;9.34;79.28;99282.53;5003829;28;20169;-47
2023/04/28 04:19:22;;;;;;;157.93;18.23;;;;;;;9.36;79.65;99280.78;5000712;28;20046;-50
2023/04/28 04:21:49;;;;;;;109.53;16.65;;;;;;;9.38;79.17;99282.47;5000795;28;20561;-48
2023/04/28 04:24:16;;;;;;;97.65;16.80;;;;;;;9.39;78.94;99278.16;4999044;28;20104;-45
2023/04/28 04:26:43;;;;;;;116.07;17.45;;;;;;;9.42;79.13;99285.88;5004381;28;20498;-46
2023/04/28 04:29:09;;;;;;;69.55;15.45;;;;;;;9.42;79.06;99280.72;4997257;28;20057;-48
2023/04/28 04:31:36;;;;;;;114.85;16.85;;;;;;;9.43;78.86;99272.09;5001896;28;20173;-43
2023/04/28 04:34:03;;;;;;;86.28;15.18;;;;;;;9.44;79.09;99276.41;5002123;28;20049;-42
2023/04/28 04:36:31;;;;;;;84.63;15.55;;;;;;;9.46;78.83;99274.63;5003547;28;20085;-49
2023/04/28 04:38:58;;;;;;;122.28;16.13;;;;;;;9.47;78.64;99284.13;5005932;28;20705;-53
2023/04/28 04:41:25;;;;;;;105.72;16.52;;;;;;;9.49;79.08;99284.94;5006210;28;20049;-50
2023/04/28 04:43:52;;;;;;;54.50;15.50;;;;;;;9.49;79.23;99287.53;5006318;28;20045;-48
2023/04/28 04:46:19;;;;;;;53.50;16.40;;;;;;;9.50;78.83;99289.25;4999570;28;20058;-51
2023/04/28 04:48:45;;;;;;;56.10;15.27;;;;;;;9.52;78.73;99292.69;5001258;28;20046;-52
2023/04/28 04:51:12;;;;;;;65.43;15.90;;;;;;;9.55;79.09;99290.94;5000887;28;20065;-42
2023/04/28 04:53:39;;;;;;;67.18;16.38;;;;;;;9.57;79.03;99289.19;5001364;28;20108;-51
2023/04/28 04:56:05;;;;;;;54.22;14.35;;;;;;;9.58;79.17;99291.75;5001650;28;20609;-49
2023/04/28 04:58:32;;;;;;;52.42;15.98;;;;;;;9.61;78.61;99290.88;5006345;28;20279;-46
2023/04/28 05:00:59;;;;;;;61.90;15.65;;;;;;;9.62;78.53;99293.44;5002950;28;20054;-46
2023/04/28 05:03:25;;;;;;;63.97;16.77;;;;;;;9.64;78.68;99296.00;4999102;28;20103;-48
2023/04/28 05:05:52;;;;;;;60.22;15.05;;;;;;;9.66;78.49;99298.56;5001010;28;20077;-46
2023/04/28 05:08:19;;;;;;;57.92;15.20;;;;;;;9.67;78.62;99290.81;5001928;28;20412;-46
2023/04/28 05:10:46;;;;;;;68.50;17.52;;;;;;;9.68;78.71;99292.50;5004379;28;20050;-48
2023/04/28 05:13:12;;;;;;;97.95;16.35;;;;;;;9.71;78.28;99289.03;5001514;28;20437;-50
2023/04/28 05:15:39;;;;;;;73.93;17.95;;;;;;;9.73;78.61;99292.47;4998718;28;20052;-52
2023/04/28 05:18:09;;;;;;;60.28;16.65;;;;;;;9.75;78.70;99294.16;4999005;28;20042;-49
2023/04/28 05:20:36;;;;;;;70.50;17.48;;;;;;;9.78;78.38;99308.78;5003782;28;20050;-44
2023/04/28 05:23:03;;;;;;;86.20;17.98;;;;;;;9.81;78.89;99302.72;5001964;28;20046;-45
2023/04/28 05:25:29;;;;;;;71.78;16.70;;;;;;;9.85;79.08;99304.38;4997708;28;20072;-44
2023/04/28 05:27:56;;;;;;;79.05;17.35;;;;;;;9.87;78.39;99307.81;5003220;28;20060;-45
2023/04/28 05:30:23;;;;;;;73.18;16.25;;;;;;;9.90;78.51;99310.38;4999202;28;20513;-48
2023/04/28 05:32:49;;;;;;;66.07;17.10;;;;;;;9.92;78.25;99324.13;5003694;28;20050;-49
2023/04/28 05:35:16;;;;;;;67.45;15.75;;;;;;;9.94;78.54;99322.41;5003234;28;20049;-52
2023/04/28 05:37:43;;;;;;;71.60;16.38;;;;;;;9.96;78.80;99322.38;5004786;28;20120;-47
2023/04/28 05:40:10;;;;;;;53.58;13.80;;;;;;;9.99;78.23;99311.97;5006941;28;20057;-49
2023/04/28 05:42:37;;;;;;;60.97;16.25;;;;;;;10.01;78.54;99313.69;5008335;28;20061;-44
2023/04/28 05:45:05;;;;;;;62.60;15.30;;;;;;;10.07;78.77;99314.47;5002712;28;20046;-50
2023/04/28 05:47:32;;;;;;;58.80;15.13;;;;;;;10.09;78.71;99320.47;5007067;28;20053;-47
2023/04/28 05:49:59;;;;;;;74.95;14.70;;;;;;;10.10;79.01;99319.63;5004235;28;20064;-47
2023/04/28 05:52:25;;;;;;;105.60;17.70;;;;;;;10.12;78.26;99315.28;5005406;28;20119;-46
2023/04/28 05:54:52;;;;;;;67.88;15.10;;;;;;;10.14;79.09;99310.94;4996710;28;20525;-46
2023/04/28 05:57:19;;;;;;;58.72;16.30;;;;;;;10.16;78.86;99315.22;5006061;28;20110;-52
2023/04/28 05:59:45;;;;;;;62.33;16.83;;;;;;;10.18;78.69;99317.78;4999722;28;20050;-48
2023/04/28 06:02:12;;;;;;;71.00;16.50;;;;;;;10.22;78.42;99319.47;5002395;28;20216;-49
2023/04/28 06:04:39;;;;;;;59.30;13.85;;;;;;;10.26;79.04;99322.84;5006964;28;20080;-52
2023/04/28 06:07:07;;;;;;;64.05;13.77;;;;;;;10.30;78.60;99321.94;5004131;28;20144;-49
2023/04/28 06:09:33;;;;;;;65.07;13.68;;;;;;;10.34;79.23;99322.75;4998068;28;20719;-48
2023/04/28 06:12:00;;;;;;;48.53;13.60;;;;;;;10.38;78.47;99327.88;5003543;28;20136;-48
2023/04/28 06:14:26;;;;;;;56.40;13.57;;;;;;;10.41;79.07;99327.81;5000800;28;20050;-51
2023/04/28 06:16:53;;;;;;;49.13;12.52;;;;;;;10.46;79.15;99332.09;5001343;28;20061;-44
2023/04/28 06:19:20;;;;;;;47.97;9.25;;;;;;;10.50;79.71;99332.06;5001776;28;20100;-47
2023/04/28 06:21:49;;;;;;;32.00;7.32;;;;;;;10.56;79.93;99332.84;5002525;28;20042;-47
2023/04/28 06:24:15;;;;;;;40.83;8.18;;;;;;;10.63;80.30;99334.47;5002821;28;20498;-44
2023/04/28 06:26:43;;;;;;;40.67;8.48;;;;;;;10.66;80.57;99334.44;5001044;28;20058;-47
2023/04/28 06:29:10;;;;;;;31.30;8.30;;;;;;;10.71;79.50;99336.97;5001592;28;20108;-45
2023/04/28 06:31:36;;;;;;;37.45;8.05;;;;;;;10.73;80.08;99336.06;5003056;28;20087;-53
2023/04/28 06:34:03;;;;;;;35.97;9.23;;;;;;;10.78;79.62;99343.75;5005130;28;20057;-44
2023/04/28 06:36:30;;;;;;;46.05;9.80;;;;;;;10.83;80.28;99347.13;5004466;28;20528;-46
2023/04/28 06:38:57;;;;;;;44.05;11.02;;;;;;;10.89;80.08;99356.53;4995922;28;20073;-45
2023/04/28 06:41:24;;;;;;;45.53;12.20;;;;;;;10.91;80.04;99362.56;5003666;28;20054;-47
2023/04/28 06:43:51;;;;;;;33.60;9.00;;;;;;;10.95;80.24;99361.66;5003149;28;20136;-44
2023/04/28 06:46:17;;;;;;;38.38;10.73;;;;;;;10.99;80.77;99363.31;4994152;28;20061;-49
2023/04/28 06:48:44;;;;;;;37.03;8.88;;;;;;;11.04;79.76;99358.91;4997575;28;20040;-48
2023/04/28 06:51:11;;;;;;;39.10;10.18;;;;;;;11.12;79.66;99368.28;4997413;28;20093;-42
2023/04/28 06:53:38;;;;;;;46.22;9.85;;;;;;;11.15;80.50;99376.03;4996149;28;20152;-50
2023/04/28 06:56:04;;;;;;;34.65;8.20;;;;;;;11.20;79.91;99371.59;5001120;28;20073;-48
2023/04/28 06:58:31;;;;;;;41.10;12.88;;;;;;;11.21;79.67;99367.28;5000684;28;20050;-47
2023/04/28 07:00:58;;;;;;;38.90;12.50;;;;;;;11.22;80.44;99372.44;4996257;28;20057;-48
2023/04/28 07:03:26;;;;;;;31.40;11.05;;;;;;;11.24;80.12;99378.44;4997264;28;20049;-48
2023/04/28 07:05:53;;;;;;;34.53;11.77;;;;;;;11.27;80.81;99377.53;4996009;28;20137;-45
2023/04/28 07:08:19;;;;;;;35.05;11.20;;;;;;;11.28;81.36;99381.88;5001018;28;20050;-50
2023/04/28 07:10:46;;;;;;;33.13;8.13;;;;;;;11.35;80.88;99387.81;5003060;28;20100;-53
2023/04/28 07:13:13;;;;;;;26.75;10.30;;;;;;;11.36;80.18;99394.69;5000986;28;20056;-46
2023/04/28 07:15:40;;;;;;;38.83;10.93;;;;;;;11.39;80.96;99390.28;4993217;28;20062;-48
2023/04/28 07:18:06;;;;;;;36.17;10.73;;;;;;;11.47;81.08;99394.50;4994930;28;20056;-46
2023/04/28 07:20:33;;;;;;;28.73;10.07;;;;;;;11.49;80.27;99396.22;5000864;28;20497;-51
2023/04/28 07:23:00;;;;;;;34.65;10.40;;;;;;;11.50;80.48;99394.44;4991417;28;20054;-46
2023/04/28 07:25:27;;;;;;;26.27;8.55;;;;;;;11.52;80.35;99408.25;4996842;28;20050;-45
2023/04/28 07:27:53;;;;;;;26.92;7.70;;;;;;;11.48;81.30;99401.41;5002590;28;20157;-44
2023/04/28 07:30:20;;;;;;;26.25;7.65;;;;;;;11.54;80.74;99398.69;4995590;28;20050;-50
2023/04/28 07:32:54;;;;;;;27.83;11.93;;;;;;;11.57;80.43;99412.50;4995882;28;20126;-47
2023/04/28 07:35:21;;;;;;;33.35;11.60;;;;;;;11.64;80.75;99417.56;4998076;28;20135;-45
2023/04/28 07:37:47;;;;;;;33.67;10.00;;;;;;;11.70;80.52;99412.28;4997083;28;20054;-51
2023/04/28 07:40:14;;;;;;;26.58;7.88;;;;;;;11.75;80.51;99426.00;5000921;28;20038;-49
2023/04/28 07:42:41;;;;;;;27.35;7.28;;;;;;;11.80;80.98;99418.16;5003225;28;20489;-43
2023/04/28 07:45:08;;;;;;;24.65;7.25;;;;;;;11.87;80.33;99424.06;5005291;28;20508;-49
2023/04/28 07:47:35;;;;;;;25.92;7.80;;;;;;;11.88;80.64;99428.38;5004478;28;20489;-50
2023/04/28 07:50:04;;;;;;;24.65;7.78;;;;;;;11.92;81.21;99437.84;4995681;28;20096;-49
2023/04/28 07:52:31;;;;;;;23.45;7.50;;;;;;;11.97;80.01;99433.41;5000452;28;20045;-47
2023/04/28 07:54:58;;;;;;;19.92;6.47;;;;;;;12.02;80.40;99441.13;4998112;28;20647;-47
2023/04/28 07:57:29;;;;;;;21.90;7.20;;;;;;;12.01;79.80;99448.03;5000612;28;20081;-47
2023/04/28 07:59:55;;;;;;;22.00;6.30;;;;;;;12.02;80.58;99452.34;5005309;28;20045;-45
2023/04/28 08:02:22;;;;;;;22.23;6.90;;;;;;;12.01;79.97;99455.84;4996788;28;20129;-47
2023/04/28 08:04:49;;;;;;;34.67;9.40;;;;;;;12.03;80.59;99455.81;4996373;28;20125;-48
2023/04/28 08:07:16;;;;;;;48.67;10.55;;;;;;;12.04;79.85;99468.75;5001130;28;20120;-46
2023/04/28 08:09:46;;;;;;;39.92;9.98;;;;;;;12.02;79.80;99470.50;5001112;28;20072;-46
2023/04/28 08:12:13;;;;;;;28.70;10.05;;;;;;;12.02;80.11;99469.69;5001763;28;20042;-47
2023/04/28 08:14:40;;;;;;;35.53;9.57;;;;;;;11.99;80.57;99480.94;5003996;28;20137;-45
2023/04/28 08:17:07;;;;;;;34.03;9.38;;;;;;;11.97;80.86;99477.53;5005580;28;20081;-49
2023/04/28 08:19:34;;;;;;;31.25;9.30;;;;;;;11.97;79.61;99485.31;5003098;28;20453;-46
2023/04/28 08:22:04;;;;;;;32.38;9.30;;;;;;;11.95;80.88;99487.06;5005826;28;20084;-51
2023/04/28 08:24:33;;;;;;;29.23;8.80;;;;;;;11.92;80.88;99489.75;5002650;28;20060;-43
2023/04/28 08:27:02;;;;;;;26.55;8.63;;;;;;;11.86;80.24;99492.44;5001981;28;20477;-50
2023/04/28 08:29:30;;;;;;;26.75;8.95;;;;;;;11.85;80.90;99493.31;5003097;28;20049;-48
2023/04/28 08:31:57;;;;;;;22.65;6.95;;;;;;;11.82;79.63;99502.84;4999595;28;20510;-44
2023/04/28 08:34:24;;;;;;;26.80;9.25;;;;;;;11.86;80.48;99506.28;4999896;28;20068;-48
2023/04/28 08:36:51;;;;;;;23.25;7.80;;;;;;;11.87;80.15;99504.53;5001303;28;20049;-47
2023/04/28 08:39:19;;;;;;;19.10;6.80;;;;;;;11.87;80.14;99512.31;5004302;28;20138;-48
2023/04/28 08:41:46;;;;;;;22.02;6.95;;;;;;;11.89;80.73;99521.78;5007458;28;20498;-43
2023/04/28 08:44:12;;;;;;;16.50;7.03;;;;;;;11.90;80.83;99512.25;5003453;28;20060;-48
2023/04/28 08:46:41;;;;;;;22.20;7.32;;;;;;;11.93;79.67;99527.78;4998391;28;20500;-49
2023/04/28 08:49:14;;;;;;;19.88;7.18;;;;;;;11.91;79.49;99517.44;4998160;28;21786;-48
2023/04/28 08:51:46;;;;;;;19.65;5.65;;;;;;;11.91;79.85;99525.22;5002850;28;20485;-47
2023/04/28 08:54:15;;;;;;;19.23;7.20;;;;;;;11.92;79.76;99533.88;4999583;28;20681;-47
2023/04/28 08:56:53;;;;;;;15.13;6.05;;;;;;;11.94;80.12;99534.69;5002746;28;20602;-45
2023/04/28 08:59:20;;;;;;;21.23;7.28;;;;;;;11.97;80.62;99534.63;5006392;28;20085;-47
2023/04/28 09:01:48;;;;;;;20.52;8.23;;;;;;;12.05;79.04;99543.16;4999638;28;20790;-51
2023/04/28 09:04:16;;;;;;;17.52;6.18;;;;;;;12.06;80.07;99538.84;5004606;28;20054;-49
2023/04/28 09:06:45;;;;;;;20.48;7.25;;;;;;;12.17;80.02;99546.44;5003753;28;20501;-47
2023/04/28 09:09:21;;;;;;;19.05;6.57;;;;;;;12.27;79.24;99548.00;5004650;28;20472;-43
2023/04/28 09:11:54;;;;;;;17.27;7.55;;;;;;;12.36;79.15;99540.94;4991132;28;20111;-51
2023/04/28 09:14:22;;;;;;;15.13;6.82;;;;;;;12.41;79.35;99547.75;5006544;28;20548;-51
2023/04/28 09:16:50;;;;;;;17.73;7.18;;;;;;;12.51;79.50;99553.63;5003607;28;20056;-49
2023/04/28 09:19:18;;;;;;;18.02;6.75;;;;;;;12.52;78.60;99547.53;5006192;28;20069;-49
2023/04/28 09:24:29;;;;;;;16.38;8.35;;;;;;;12.67;79.57;99561.13;5016837;27;20419;-48
2023/04/28 09:27:01;;;;;;;14.68;7.93;;;;;;;12.71;78.99;99562.78;5013089;28;20068;-45
2023/04/28 09:29:29;;;;;;;17.77;7.50;;;;;;;12.77;78.63;99562.66;4999244;28;20042;-49
2023/04/28 09:34:51;;;;;;;16.08;6.47;;;;;;;12.92;78.96;99584.03;5101538;27;20396;-49
2023/04/28 09:37:21;;;;;;;16.67;6.43;;;;;;;12.94;78.09;99584.88;5063630;28;20041;-48
2023/04/28 09:39:49;;;;;;;;;;;;;;;12.79;77.65;99592.06;5102508;28;20075;-46
2023/04/28 09:45:10;;;;;;;14.10;5.38;;;;;;;12.85;77.50;99597.16;5065106;27;20415;-48
2023/04/28 09:50:16;;;;;;;13.00;5.38;;;;;;;12.73;77.87;99607.75;5056907;27;20406;-47
2023/04/28 09:52:55;;;;;;;11.65;5.03;;;;;;;12.70;77.10;99607.84;5002646;28;20165;-47
2023/04/28 09:55:23;;;;;;;6.03;3.42;;;;;;;12.59;76.81;99611.50;5034136;28;20045;-45
2023/04/28 09:57:53;;;;;;;14.25;5.18;;;;;;;12.56;76.62;99610.66;5053952;28;20119;-44
2023/04/28 10:00:21;;;;;;;10.82;4.90;;;;;;;12.51;76.06;99618.56;5053823;28;20163;-49
2023/04/28 10:02:49;;;;;;;16.30;6.47;;;;;;;12.47;77.62;99622.09;5053130;28;20053;-47
2023/04/28 10:05:16;;;;;;;15.63;7.97;;;;;;;12.44;76.51;99635.13;5058493;28;20681;-47
2023/04/28 10:07:44;;;;;;;13.95;5.95;;;;;;;12.51;76.93;99634.16;5053980;28;20497;-48
2023/04/28 10:10:13;;;;;;;12.48;5.32;;;;;;;12.68;77.81;99639.06;5053753;28;20552;-49
2023/04/28 10:12:40;;;;;;;14.30;5.47;;;;;;;12.85;77.41;99643.06;5051937;28;20052;-44
2023/04/28 10:15:09;;;;;;;8.98;3.67;;;;;;;12.96;77.35;99641.13;5050006;28;20049;-53
2023/04/28 10:17:36;;;;;;;12.98;5.90;;;;;;;13.15;75.82;99648.56;5046687;28;20075;-47
2023/04/28 10:20:05;;;;;;;9.07;3.97;;;;;;;13.26;76.18;99652.69;5055863;28;20048;-50
2023/04/28 10:28:07;;;;;;;9.75;5.47;;;;;;;13.25;74.47;99662.25;5101132;27;20401;-48
2023/04/28 10:30:34;;;;;;;9.55;6.15;;;;;;;13.24;74.30;99660.50;5107549;28;20054;-49
2023/04/28 10:33:22;;;;;;;8.40;4.55;;;;;;;13.13;74.01;99673.75;5100907;27;20039;-48
2023/04/28 10:35:49;;;;;;;9.25;4.68;;;;;;;13.13;73.68;99672.91;5065435;28;20465;-45
2023/04/28 10:38:20;;;;;;;8.98;4.97;;;;;;;13.04;73.72;99677.38;5095215;28;20108;-50
2023/04/28 10:40:49;;;;;;;9.68;5.53;;;;;;;12.98;73.62;99682.69;5107001;27;20044;-53
2023/04/28 10:43:33;;;;;;;9.05;5.65;;;;;;;12.93;74.52;99687.09;5107316;27;20047;-47
2023/04/28 10:46:02;;;;;;;12.48;6.53;;;;;;;12.85;74.29;99693.31;5104147;27;20677;-43
2023/04/28 10:58:57;;;;;;;11.38;4.63;;;;;;;12.98;75.08;99711.28;5084886;27;20395;-47
2023/04/28 11:04:11;;;;;;;13.15;6.22;;;;;;;13.04;74.55;99713.75;5098283;27;20791;-48
2023/04/28 11:14:33;;;;;;;15.85;7.28;;;;;;;13.08;74.15;99728.41;5035139;27;20398;-48
2023/04/28 11:17:02;;;;;;;14.23;6.47;;;;;;;13.06;74.71;99730.19;5015610;28;20140;-51
2023/04/28 11:19:31;;;;;;;16.92;7.88;;;;;;;13.05;74.45;99722.44;5018500;28;20081;-49
2023/04/28 11:22:00;;;;;;;18.17;7.80;;;;;;;13.03;73.98;99725.06;5014261;28;20133;-47
2023/04/28 11:24:28;;;;;;;16.23;6.55;;;;;;;13.00;74.25;99725.09;5020565;28;20146;-45
2023/04/28 11:26:56;;;;;;;17.08;6.72;;;;;;;13.03;74.46;99730.25;5015641;28;20418;-50
2023/04/28 11:32:08;;;;;;;18.63;8.93;;;;;;;13.34;73.34;99734.88;5059346;27;20393;-48
2023/04/28 11:34:36;;;;;;;13.98;6.20;;;;;;;13.03;74.09;99730.25;5020443;28;20141;-48
2023/04/28 11:37:04;;;;;;;16.67;7.32;;;;;;;12.97;73.90;99738.19;5011907;28;20041;-48
2023/04/28 11:39:32;;;;;;;17.02;6.93;;;;;;;12.99;74.03;99749.41;5022747;28;20054;-52
2023/04/28 11:42:01;;;;;;;15.52;6.88;;;;;;;13.06;74.77;99745.81;5022503;28;20091;-43
2023/04/28 11:44:30;;;;;;;15.13;6.65;;;;;;;13.14;73.85;99747.41;5008496;28;20129;-49
2023/04/28 11:46:59;;;;;;;13.38;5.97;;;;;;;13.25;74.14;99745.47;5006193;28;20082;-46
2023/04/28 11:49:32;;;;;;;14.32;6.35;;;;;;;13.31;73.82;99755.75;5006000;28;20050;-48
2023/04/28 11:52:07;;;;;;;15.88;6.65;;;;;;;13.32;73.54;99756.59;5004238;28;20081;-44
2023/04/28 11:54:34;;;;;;;13.68;6.40;;;;;;;13.37;73.48;99757.38;5014119;28;20058;-45
2023/04/28 11:57:03;;;;;;;15.00;6.15;;;;;;;13.35;73.08;99762.59;5016696;28;20053;-50
2023/04/28 11:59:33;;;;;;;10.13;5.25;;;;;;;13.30;73.34;99769.63;5015923;28;20069;-48
2023/04/28 12:02:03;;;;;;;13.73;6.18;;;;;;;13.27;72.77;99768.84;5012952;28;20060;-48
2023/04/28 12:04:39;;;;;;;14.07;5.72;;;;;;;13.26;72.78;99773.19;5015839;28;20073;-49
2023/04/28 12:07:15;;;;;;;13.60;5.82;;;;;;;13.34;73.17;99775.66;5019621;28;20057;-49